sensor_id;sensor_type;location;lat;lon;timestamp;P1;durP1;ratioP1;P2;durP2;ratioP2
44432;SDS011;30136;50.600;4.608;2022-10-16T00:00:54;27.23;;;18.37;;
44432;SDS011;30136;50.600;4.608;2022-10-16T00:01:55;29.95;;;19.50;;
44432;SDS011;30136;50.600;4.608;2022-10-16T00:02:56;29.93;;;19.07;;
44432;SDS011;30136;50.600;4.608;2022-10-16T00:03:57;29.92;;;18.40;;
44432;SDS011;30136;50.600;4.608;2022-10-16T00:05:00;31.43;;;18.37;;
44432;SDS011;30136;50.600;4.608;2022-10-16T00:06:01;30.03;;;18.37;;
44432;SDS011;30136;50.600;4.608;2022-10-16T00:07:02;24.93;;;17.27;;
44432;SDS011;30136;50.600;4.608;2022-10-16T00:08:03;29.63;;;18.17;;
44432;SDS011;30136;50.600;4.608;2022-10-16T00:09:05;26.15;;;18.38;;
44432;SDS011;30136;50.600;4.608;2022-10-16T00:11:11;27.93;;;18.43;;
44432;SDS011;30136;50.600;4.608;2022-10-16T00:12:16;23.33;;;17.23;;
44432;SDS011;30136;50.600;4.608;2022-10-16T00:13:17;26.27;;;17.07;;
44432;SDS011;30136;50.600;4.608;2022-10-16T00:14:19;26.83;;;17.50;;
44432;SDS011;30136;50.600;4.608;2022-10-16T00:15:20;25.10;;;17.33;;
44432;SDS011;30136;50.600;4.608;2022-10-16T00:16:21;25.67;;;17.13;;
44432;SDS011;30136;50.600;4.608;2022-10-16T00:17:22;26.13;;;17.38;;
44432;SDS011;30136;50.600;4.608;2022-10-16T00:18:23;30.37;;;17.50;;
44432;SDS011;30136;50.600;4.608;2022-10-16T00:19:24;27.67;;;17.35;;
44432;SDS011;30136;50.600;4.608;2022-10-16T00:20:25;25.83;;;16.42;;
44432;SDS011;30136;50.600;4.608;2022-10-16T00:21:27;26.10;;;16.90;;
44432;SDS011;30136;50.600;4.608;2022-10-16T00:22:29;25.77;;;18.03;;
44432;SDS011;30136;50.600;4.608;2022-10-16T00:23:30;25.35;;;16.70;;
44432;SDS011;30136;50.600;4.608;2022-10-16T00:24:31;24.03;;;16.57;;
44432;SDS011;30136;50.600;4.608;2022-10-16T00:25:32;25.35;;;17.13;;
44432;SDS011;30136;50.600;4.608;2022-10-16T00:26:33;25.45;;;17.38;;
44432;SDS011;30136;50.600;4.608;2022-10-16T00:27:36;28.27;;;17.03;;
44432;SDS011;30136;50.600;4.608;2022-10-16T00:28:37;22.83;;;15.87;;
44432;SDS011;30136;50.600;4.608;2022-10-16T00:29:38;25.60;;;16.48;;
44432;SDS011;30136;50.600;4.608;2022-10-16T00:30:39;25.03;;;16.10;;
44432;SDS011;30136;50.600;4.608;2022-10-16T00:31:40;24.08;;;15.95;;
44432;SDS011;30136;50.600;4.608;2022-10-16T00:32:41;23.95;;;16.45;;
44432;SDS011;30136;50.600;4.608;2022-10-16T00:33:42;24.02;;;15.77;;
44432;SDS011;30136;50.600;4.608;2022-10-16T00:34:43;21.87;;;14.93;;
44432;SDS011;30136;50.600;4.608;2022-10-16T00:35:44;27.98;;;15.80;;
44432;SDS011;30136;50.600;4.608;2022-10-16T00:36:45;24.38;;;15.52;;
44432;SDS011;30136;50.600;4.608;2022-10-16T00:37:45;22.00;;;15.32;;
44432;SDS011;30136;50.600;4.608;2022-10-16T00:38:47;22.30;;;14.93;;
44432;SDS011;30136;50.600;4.608;2022-10-16T00:39:52;22.97;;;14.30;;
44432;SDS011;30136;50.600;4.608;2022-10-16T00:40:54;25.77;;;14.95;;
44432;SDS011;30136;50.600;4.608;2022-10-16T00:41:55;23.10;;;15.20;;
44432;SDS011;30136;50.600;4.608;2022-10-16T00:42:56;22.77;;;15.30;;
44432;SDS011;30136;50.600;4.608;2022-10-16T00:44:00;24.23;;;15.53;;
44432;SDS011;30136;50.600;4.608;2022-10-16T00:45:04;22.77;;;14.97;;
44432;SDS011;30136;50.600;4.608;2022-10-16T00:46:48;23.07;;;15.03;;
44432;SDS011;30136;50.600;4.608;2022-10-16T00:47:44;22.43;;;15.03;;
44432;SDS011;30136;50.600;4.608;2022-10-16T00:48:54;21.80;;;14.87;;
44432;SDS011;30136;50.600;4.608;2022-10-16T00:50:16;22.17;;;15.23;;
44432;SDS011;30136;50.600;4.608;2022-10-16T00:51:31;21.43;;;14.33;;
44432;SDS011;30136;50.600;4.608;2022-10-16T00:52:35;21.07;;;14.10;;
44432;SDS011;30136;50.600;4.608;2022-10-16T00:53:39;22.43;;;14.33;;
44432;SDS011;30136;50.600;4.608;2022-10-16T00:54:41;24.75;;;15.48;;
44432;SDS011;30136;50.600;4.608;2022-10-16T00:55:41;23.15;;;14.20;;
44432;SDS011;30136;50.600;4.608;2022-10-16T00:56:43;19.23;;;13.80;;
44432;SDS011;30136;50.600;4.608;2022-10-16T00:57:45;21.20;;;14.27;;
44432;SDS011;30136;50.600;4.608;2022-10-16T00:58:48;24.43;;;13.70;;
44432;SDS011;30136;50.600;4.608;2022-10-16T00:59:49;20.98;;;13.35;;
44432;SDS011;30136;50.600;4.608;2022-10-16T01:00:50;19.00;;;13.50;;
44432;SDS011;30136;50.600;4.608;2022-10-16T01:01:51;20.13;;;13.30;;
44432;SDS011;30136;50.600;4.608;2022-10-16T01:02:55;18.77;;;12.87;;
44432;SDS011;30136;50.600;4.608;2022-10-16T01:04:01;20.50;;;14.37;;
44432;SDS011;30136;50.600;4.608;2022-10-16T01:05:02;19.05;;;13.40;;
44432;SDS011;30136;50.600;4.608;2022-10-16T01:07:58;17.83;;;13.33;;
44432;SDS011;30136;50.600;4.608;2022-10-16T01:10:38;21.13;;;12.53;;
44432;SDS011;30136;50.600;4.608;2022-10-16T01:13:16;19.10;;;13.17;;
44432;SDS011;30136;50.600;4.608;2022-10-16T01:16:35;18.87;;;12.80;;
44432;SDS011;30136;50.600;4.608;2022-10-16T01:18:08;18.43;;;11.77;;
44432;SDS011;30136;50.600;4.608;2022-10-16T01:19:18;22.43;;;13.27;;
44432;SDS011;30136;50.600;4.608;2022-10-16T01:20:51;19.60;;;12.37;;
44432;SDS011;30136;50.600;4.608;2022-10-16T01:21:59;17.80;;;12.27;;
44432;SDS011;30136;50.600;4.608;2022-10-16T01:23:04;15.97;;;11.80;;
44432;SDS011;30136;50.600;4.608;2022-10-16T01:24:37;18.80;;;12.40;;
44432;SDS011;30136;50.600;4.608;2022-10-16T01:28:38;17.83;;;12.77;;
44432;SDS011;30136;50.600;4.608;2022-10-16T01:30:58;15.77;;;12.13;;
44432;SDS011;30136;50.600;4.608;2022-10-16T01:32:01;19.13;;;11.57;;
44432;SDS011;30136;50.600;4.608;2022-10-16T01:34:21;17.77;;;11.53;;
44432;SDS011;30136;50.600;4.608;2022-10-16T01:35:32;17.38;;;11.70;;
44432;SDS011;30136;50.600;4.608;2022-10-16T01:36:43;17.80;;;11.57;;
44432;SDS011;30136;50.600;4.608;2022-10-16T01:37:55;16.97;;;11.10;;
44432;SDS011;30136;50.600;4.608;2022-10-16T01:39:24;17.27;;;11.73;;
44432;SDS011;30136;50.600;4.608;2022-10-16T01:40:30;16.23;;;11.17;;
44432;SDS011;30136;50.600;4.608;2022-10-16T01:41:44;15.80;;;10.60;;
44432;SDS011;30136;50.600;4.608;2022-10-16T01:42:51;15.43;;;10.50;;
44432;SDS011;30136;50.600;4.608;2022-10-16T01:43:59;16.10;;;10.57;;
44432;SDS011;30136;50.600;4.608;2022-10-16T01:45:09;16.05;;;11.02;;
44432;SDS011;30136;50.600;4.608;2022-10-16T01:46:14;14.10;;;9.87;;
44432;SDS011;30136;50.600;4.608;2022-10-16T01:47:19;17.83;;;10.73;;
44432;SDS011;30136;50.600;4.608;2022-10-16T01:48:24;15.87;;;10.67;;
44432;SDS011;30136;50.600;4.608;2022-10-16T01:49:25;16.92;;;10.77;;
44432;SDS011;30136;50.600;4.608;2022-10-16T01:50:33;15.40;;;10.53;;
44432;SDS011;30136;50.600;4.608;2022-10-16T01:51:40;16.13;;;11.27;;
44432;SDS011;30136;50.600;4.608;2022-10-16T01:52:45;14.70;;;10.30;;
44432;SDS011;30136;50.600;4.608;2022-10-16T01:53:52;16.07;;;11.23;;
44432;SDS011;30136;50.600;4.608;2022-10-16T01:54:56;14.27;;;10.27;;
44432;SDS011;30136;50.600;4.608;2022-10-16T01:55:59;16.60;;;10.40;;
44432;SDS011;30136;50.600;4.608;2022-10-16T01:57:03;16.53;;;10.33;;
44432;SDS011;30136;50.600;4.608;2022-10-16T01:58:06;16.00;;;9.63;;
44432;SDS011;30136;50.600;4.608;2022-10-16T01:59:09;14.07;;;9.90;;
44432;SDS011;30136;50.600;4.608;2022-10-16T02:00:14;12.67;;;9.50;;
44432;SDS011;30136;50.600;4.608;2022-10-16T02:01:18;14.80;;;9.80;;
44432;SDS011;30136;50.600;4.608;2022-10-16T02:02:22;24.30;;;10.27;;
44432;SDS011;30136;50.600;4.608;2022-10-16T02:03:27;18.50;;;10.17;;
44432;SDS011;30136;50.600;4.608;2022-10-16T02:04:32;20.48;;;9.75;;
44432;SDS011;30136;50.600;4.608;2022-10-16T02:05:56;16.70;;;9.67;;
44432;SDS011;30136;50.600;4.608;2022-10-16T02:06:58;14.73;;;9.57;;
44432;SDS011;30136;50.600;4.608;2022-10-16T02:08:00;17.33;;;9.13;;
44432;SDS011;30136;50.600;4.608;2022-10-16T02:09:00;16.03;;;9.27;;
44432;SDS011;30136;50.600;4.608;2022-10-16T02:10:02;12.95;;;8.95;;
44432;SDS011;30136;50.600;4.608;2022-10-16T02:11:03;13.13;;;9.53;;
44432;SDS011;30136;50.600;4.608;2022-10-16T02:12:15;11.23;;;8.93;;
44432;SDS011;30136;50.600;4.608;2022-10-16T02:13:30;18.83;;;9.77;;
44432;SDS011;30136;50.600;4.608;2022-10-16T02:14:45;15.10;;;9.90;;
44432;SDS011;30136;50.600;4.608;2022-10-16T02:15:46;12.10;;;9.23;;
44432;SDS011;30136;50.600;4.608;2022-10-16T02:16:47;17.02;;;8.93;;
44432;SDS011;30136;50.600;4.608;2022-10-16T02:17:48;16.40;;;9.27;;
44432;SDS011;30136;50.600;4.608;2022-10-16T02:18:49;16.50;;;9.40;;
44432;SDS011;30136;50.600;4.608;2022-10-16T02:19:50;14.25;;;8.98;;
44432;SDS011;30136;50.600;4.608;2022-10-16T02:22:44;16.00;;;8.83;;
44432;SDS011;30136;50.600;4.608;2022-10-16T02:23:54;15.00;;;9.00;;
44432;SDS011;30136;50.600;4.608;2022-10-16T02:25:22;15.30;;;8.97;;
44432;SDS011;30136;50.600;4.608;2022-10-16T02:26:41;10.57;;;7.90;;
44432;SDS011;30136;50.600;4.608;2022-10-16T02:27:55;15.07;;;8.17;;
44432;SDS011;30136;50.600;4.608;2022-10-16T02:29:04;12.95;;;8.27;;
44432;SDS011;30136;50.600;4.608;2022-10-16T02:31:52;14.00;;;8.57;;
44432;SDS011;30136;50.600;4.608;2022-10-16T02:32:59;12.03;;;8.40;;
44432;SDS011;30136;50.600;4.608;2022-10-16T02:34:03;13.77;;;8.13;;
44432;SDS011;30136;50.600;4.608;2022-10-16T02:35:06;14.33;;;8.27;;
44432;SDS011;30136;50.600;4.608;2022-10-16T02:36:08;15.67;;;8.73;;
44432;SDS011;30136;50.600;4.608;2022-10-16T02:37:10;10.97;;;8.23;;
44432;SDS011;30136;50.600;4.608;2022-10-16T02:38:12;12.93;;;8.10;;
44432;SDS011;30136;50.600;4.608;2022-10-16T02:39:15;11.73;;;8.27;;
44432;SDS011;30136;50.600;4.608;2022-10-16T02:40:17;11.23;;;7.97;;
44432;SDS011;30136;50.600;4.608;2022-10-16T02:43:28;11.83;;;7.77;;
44432;SDS011;30136;50.600;4.608;2022-10-16T02:44:29;11.07;;;8.02;;
44432;SDS011;30136;50.600;4.608;2022-10-16T02:45:30;13.77;;;7.72;;
44432;SDS011;30136;50.600;4.608;2022-10-16T02:47:32;12.37;;;7.63;;
44432;SDS011;30136;50.600;4.608;2022-10-16T02:48:33;14.30;;;8.43;;
44432;SDS011;30136;50.600;4.608;2022-10-16T02:49:35;10.95;;;7.72;;
44432;SDS011;30136;50.600;4.608;2022-10-16T02:50:35;13.80;;;8.02;;
44432;SDS011;30136;50.600;4.608;2022-10-16T02:51:36;10.38;;;7.85;;
44432;SDS011;30136;50.600;4.608;2022-10-16T02:52:37;10.13;;;7.85;;
44432;SDS011;30136;50.600;4.608;2022-10-16T02:53:38;11.23;;;7.85;;
44432;SDS011;30136;50.600;4.608;2022-10-16T02:54:39;9.15;;;6.97;;
44432;SDS011;30136;50.600;4.608;2022-10-16T02:55:40;11.38;;;7.32;;
44432;SDS011;30136;50.600;4.608;2022-10-16T02:57:42;11.90;;;7.33;;
44432;SDS011;30136;50.600;4.608;2022-10-16T02:58:43;11.20;;;7.67;;
44432;SDS011;30136;50.600;4.608;2022-10-16T02:59:44;11.02;;;7.90;;
44432;SDS011;30136;50.600;4.608;2022-10-16T03:00:45;11.73;;;7.75;;
44432;SDS011;30136;50.600;4.608;2022-10-16T03:01:46;11.37;;;7.57;;
44432;SDS011;30136;50.600;4.608;2022-10-16T03:02:47;10.87;;;7.97;;
44432;SDS011;30136;50.600;4.608;2022-10-16T03:03:48;11.82;;;7.40;;
44432;SDS011;30136;50.600;4.608;2022-10-16T03:04:49;9.53;;;6.90;;
44432;SDS011;30136;50.600;4.608;2022-10-16T03:05:50;12.23;;;7.07;;
44432;SDS011;30136;50.600;4.608;2022-10-16T03:06:50;12.00;;;7.78;;
44432;SDS011;30136;50.600;4.608;2022-10-16T03:07:51;13.07;;;7.07;;
44432;SDS011;30136;50.600;4.608;2022-10-16T03:08:52;12.27;;;7.63;;
44432;SDS011;30136;50.600;4.608;2022-10-16T03:09:53;10.60;;;7.17;;
44432;SDS011;30136;50.600;4.608;2022-10-16T03:10:55;9.00;;;6.70;;
44432;SDS011;30136;50.600;4.608;2022-10-16T03:11:56;10.27;;;6.93;;
44432;SDS011;30136;50.600;4.608;2022-10-16T03:12:57;9.88;;;7.05;;
44432;SDS011;30136;50.600;4.608;2022-10-16T03:13:57;10.00;;;6.87;;
44432;SDS011;30136;50.600;4.608;2022-10-16T03:14:58;10.75;;;7.47;;
44432;SDS011;30136;50.600;4.608;2022-10-16T03:15:59;8.55;;;6.93;;
44432;SDS011;30136;50.600;4.608;2022-10-16T03:17:00;8.67;;;7.07;;
44432;SDS011;30136;50.600;4.608;2022-10-16T03:18:01;11.52;;;6.93;;
44432;SDS011;30136;50.600;4.608;2022-10-16T03:19:02;9.43;;;7.13;;
44432;SDS011;30136;50.600;4.608;2022-10-16T03:20:03;9.45;;;7.50;;
44432;SDS011;30136;50.600;4.608;2022-10-16T03:21:04;14.00;;;6.50;;
44432;SDS011;30136;50.600;4.608;2022-10-16T03:22:05;10.05;;;7.45;;
44432;SDS011;30136;50.600;4.608;2022-10-16T03:23:06;9.43;;;6.30;;
44432;SDS011;30136;50.600;4.608;2022-10-16T03:25:08;12.83;;;6.23;;
44432;SDS011;30136;50.600;4.608;2022-10-16T03:26:09;12.75;;;6.88;;
44432;SDS011;30136;50.600;4.608;2022-10-16T03:27:10;10.13;;;7.03;;
44432;SDS011;30136;50.600;4.608;2022-10-16T03:28:11;9.10;;;6.37;;
44432;SDS011;30136;50.600;4.608;2022-10-16T03:29:12;10.20;;;6.70;;
44432;SDS011;30136;50.600;4.608;2022-10-16T03:30:13;8.93;;;6.82;;
44432;SDS011;30136;50.600;4.608;2022-10-16T03:31:14;9.65;;;6.55;;
44432;SDS011;30136;50.600;4.608;2022-10-16T03:32:15;12.30;;;6.47;;
44432;SDS011;30136;50.600;4.608;2022-10-16T03:33:16;11.20;;;6.20;;
44432;SDS011;30136;50.600;4.608;2022-10-16T03:34:16;13.10;;;7.43;;
44432;SDS011;30136;50.600;4.608;2022-10-16T03:35:17;14.23;;;6.40;;
44432;SDS011;30136;50.600;4.608;2022-10-16T03:36:18;8.70;;;6.40;;
44432;SDS011;30136;50.600;4.608;2022-10-16T03:37:19;8.97;;;6.77;;
44432;SDS011;30136;50.600;4.608;2022-10-16T03:38:21;7.00;;;5.95;;
44432;SDS011;30136;50.600;4.608;2022-10-16T03:39:22;8.37;;;6.10;;
44432;SDS011;30136;50.600;4.608;2022-10-16T03:40:23;8.05;;;6.00;;
44432;SDS011;30136;50.600;4.608;2022-10-16T03:41:24;10.35;;;6.43;;
44432;SDS011;30136;50.600;4.608;2022-10-16T03:42:25;10.73;;;6.38;;
44432;SDS011;30136;50.600;4.608;2022-10-16T03:43:25;9.43;;;6.03;;
44432;SDS011;30136;50.600;4.608;2022-10-16T03:44:26;10.93;;;5.90;;
44432;SDS011;30136;50.600;4.608;2022-10-16T03:45:27;9.00;;;5.70;;
44432;SDS011;30136;50.600;4.608;2022-10-16T03:46:28;14.05;;;6.43;;
44432;SDS011;30136;50.600;4.608;2022-10-16T03:47:29;10.13;;;5.75;;
44432;SDS011;30136;50.600;4.608;2022-10-16T03:48:32;10.03;;;6.53;;
44432;SDS011;30136;50.600;4.608;2022-10-16T03:49:34;11.23;;;6.28;;
44432;SDS011;30136;50.600;4.608;2022-10-16T03:50:35;8.18;;;6.30;;
44432;SDS011;30136;50.600;4.608;2022-10-16T03:51:35;10.23;;;6.13;;
44432;SDS011;30136;50.600;4.608;2022-10-16T03:52:36;7.85;;;6.22;;
44432;SDS011;30136;50.600;4.608;2022-10-16T03:53:37;8.40;;;5.57;;
44432;SDS011;30136;50.600;4.608;2022-10-16T03:54:38;8.90;;;6.30;;
44432;SDS011;30136;50.600;4.608;2022-10-16T03:55:40;7.00;;;5.57;;
44432;SDS011;30136;50.600;4.608;2022-10-16T03:56:42;8.40;;;5.60;;
44432;SDS011;30136;50.600;4.608;2022-10-16T03:57:43;9.32;;;6.03;;
44432;SDS011;30136;50.600;4.608;2022-10-16T03:58:44;12.80;;;5.90;;
44432;SDS011;30136;50.600;4.608;2022-10-16T03:59:44;9.88;;;6.10;;
44432;SDS011;30136;50.600;4.608;2022-10-16T04:00:45;7.03;;;5.80;;
44432;SDS011;30136;50.600;4.608;2022-10-16T04:01:50;8.23;;;5.60;;
44432;SDS011;30136;50.600;4.608;2022-10-16T04:02:50;9.30;;;6.60;;
44432;SDS011;30136;50.600;4.608;2022-10-16T04:03:51;7.47;;;5.27;;
44432;SDS011;30136;50.600;4.608;2022-10-16T04:04:52;9.77;;;6.30;;
44432;SDS011;30136;50.600;4.608;2022-10-16T04:05:53;8.03;;;5.97;;
44432;SDS011;30136;50.600;4.608;2022-10-16T04:06:54;9.00;;;5.20;;
44432;SDS011;30136;50.600;4.608;2022-10-16T04:07:54;10.93;;;5.77;;
44432;SDS011;30136;50.600;4.608;2022-10-16T04:08:55;10.55;;;5.90;;
44432;SDS011;30136;50.600;4.608;2022-10-16T04:09:56;8.13;;;5.80;;
44432;SDS011;30136;50.600;4.608;2022-10-16T04:10:58;8.50;;;5.40;;
44432;SDS011;30136;50.600;4.608;2022-10-16T04:11:59;9.43;;;5.82;;
44432;SDS011;30136;50.600;4.608;2022-10-16T04:13:00;8.50;;;5.50;;
44432;SDS011;30136;50.600;4.608;2022-10-16T04:14:01;8.90;;;5.25;;
44432;SDS011;30136;50.600;4.608;2022-10-16T04:15:02;7.00;;;5.53;;
44432;SDS011;30136;50.600;4.608;2022-10-16T04:16:03;6.78;;;5.32;;
44432;SDS011;30136;50.600;4.608;2022-10-16T04:17:04;15.63;;;5.47;;
44432;SDS011;30136;50.600;4.608;2022-10-16T04:18:05;7.40;;;5.03;;
44432;SDS011;30136;50.600;4.608;2022-10-16T04:19:06;6.30;;;5.38;;
44432;SDS011;30136;50.600;4.608;2022-10-16T04:20:07;9.73;;;5.07;;
44432;SDS011;30136;50.600;4.608;2022-10-16T04:21:08;10.75;;;4.97;;
44432;SDS011;30136;50.600;4.608;2022-10-16T04:22:09;6.43;;;5.10;;
44432;SDS011;30136;50.600;4.608;2022-10-16T04:23:10;5.50;;;4.73;;
44432;SDS011;30136;50.600;4.608;2022-10-16T04:24:10;12.90;;;5.43;;
44432;SDS011;30136;50.600;4.608;2022-10-16T04:25:12;8.95;;;5.35;;
44432;SDS011;30136;50.600;4.608;2022-10-16T04:26:13;10.95;;;5.15;;
44432;SDS011;30136;50.600;4.608;2022-10-16T04:27:13;6.95;;;5.13;;
44432;SDS011;30136;50.600;4.608;2022-10-16T04:28:14;10.90;;;5.10;;
44432;SDS011;30136;50.600;4.608;2022-10-16T04:29:15;5.75;;;4.65;;
44432;SDS011;30136;50.600;4.608;2022-10-16T04:30:16;7.83;;;5.30;;
44432;SDS011;30136;50.600;4.608;2022-10-16T04:31:17;11.40;;;5.00;;
44432;SDS011;30136;50.600;4.608;2022-10-16T04:32:18;9.57;;;5.45;;
44432;SDS011;30136;50.600;4.608;2022-10-16T04:33:19;9.43;;;4.78;;
44432;SDS011;30136;50.600;4.608;2022-10-16T04:34:20;7.95;;;4.80;;
44432;SDS011;30136;50.600;4.608;2022-10-16T04:35:21;8.38;;;5.25;;
44432;SDS011;30136;50.600;4.608;2022-10-16T04:36:22;8.65;;;5.00;;
44432;SDS011;30136;50.600;4.608;2022-10-16T04:37:26;9.52;;;4.60;;
44432;SDS011;30136;50.600;4.608;2022-10-16T04:38:27;6.63;;;4.83;;
44432;SDS011;30136;50.600;4.608;2022-10-16T04:39:28;9.95;;;5.13;;
44432;SDS011;30136;50.600;4.608;2022-10-16T04:40:29;7.95;;;5.10;;
44432;SDS011;30136;50.600;4.608;2022-10-16T04:41:32;8.03;;;4.67;;
44432;SDS011;30136;50.600;4.608;2022-10-16T04:42:33;7.18;;;4.47;;
44432;SDS011;30136;50.600;4.608;2022-10-16T04:43:34;5.95;;;4.40;;
44432;SDS011;30136;50.600;4.608;2022-10-16T04:44:35;12.13;;;4.35;;
44432;SDS011;30136;50.600;4.608;2022-10-16T04:45:36;6.77;;;4.77;;
44432;SDS011;30136;50.600;4.608;2022-10-16T04:46:37;8.40;;;4.53;;
44432;SDS011;30136;50.600;4.608;2022-10-16T04:47:38;9.60;;;4.67;;
44432;SDS011;30136;50.600;4.608;2022-10-16T04:48:39;6.25;;;4.00;;
44432;SDS011;30136;50.600;4.608;2022-10-16T04:49:39;7.40;;;4.77;;
44432;SDS011;30136;50.600;4.608;2022-10-16T04:50:40;7.23;;;4.70;;
44432;SDS011;30136;50.600;4.608;2022-10-16T04:51:41;7.85;;;4.50;;
44432;SDS011;30136;50.600;4.608;2022-10-16T04:52:42;8.40;;;4.80;;
44432;SDS011;30136;50.600;4.608;2022-10-16T04:53:43;4.88;;;4.05;;
44432;SDS011;30136;50.600;4.608;2022-10-16T04:54:44;8.32;;;5.32;;
44432;SDS011;30136;50.600;4.608;2022-10-16T04:55:45;8.45;;;5.03;;
44432;SDS011;30136;50.600;4.608;2022-10-16T04:56:46;10.43;;;5.07;;
44432;SDS011;30136;50.600;4.608;2022-10-16T04:58:48;7.57;;;4.63;;
44432;SDS011;30136;50.600;4.608;2022-10-16T04:59:49;10.00;;;4.57;;
44432;SDS011;30136;50.600;4.608;2022-10-16T05:00:50;6.65;;;4.57;;
44432;SDS011;30136;50.600;4.608;2022-10-16T05:01:51;9.57;;;5.17;;
44432;SDS011;30136;50.600;4.608;2022-10-16T05:02:52;6.83;;;4.20;;
44432;SDS011;30136;50.600;4.608;2022-10-16T05:03:53;7.40;;;4.45;;
44432;SDS011;30136;50.600;4.608;2022-10-16T05:04:54;6.88;;;4.72;;
44432;SDS011;30136;50.600;4.608;2022-10-16T05:05:54;5.55;;;4.00;;
44432;SDS011;30136;50.600;4.608;2022-10-16T05:06:56;7.90;;;4.50;;
44432;SDS011;30136;50.600;4.608;2022-10-16T05:07:57;7.57;;;4.67;;
44432;SDS011;30136;50.600;4.608;2022-10-16T05:08:58;6.03;;;4.20;;
44432;SDS011;30136;50.600;4.608;2022-10-16T05:09:59;6.50;;;3.72;;
44432;SDS011;30136;50.600;4.608;2022-10-16T05:10:59;6.10;;;4.10;;
44432;SDS011;30136;50.600;4.608;2022-10-16T05:12:01;7.00;;;4.27;;
44432;SDS011;30136;50.600;4.608;2022-10-16T05:13:03;6.77;;;4.27;;
44432;SDS011;30136;50.600;4.608;2022-10-16T05:14:04;6.13;;;4.47;;
44432;SDS011;30136;50.600;4.608;2022-10-16T05:15:05;7.05;;;4.35;;
44432;SDS011;30136;50.600;4.608;2022-10-16T05:17:07;4.43;;;4.03;;
44432;SDS011;30136;50.600;4.608;2022-10-16T05:18:08;6.85;;;4.30;;
44432;SDS011;30136;50.600;4.608;2022-10-16T05:19:09;5.18;;;4.32;;
44432;SDS011;30136;50.600;4.608;2022-10-16T05:20:10;6.25;;;4.07;;
44432;SDS011;30136;50.600;4.608;2022-10-16T05:21:12;6.30;;;4.00;;
44432;SDS011;30136;50.600;4.608;2022-10-16T05:22:13;5.28;;;4.05;;
44432;SDS011;30136;50.600;4.608;2022-10-16T05:23:13;7.05;;;4.00;;
44432;SDS011;30136;50.600;4.608;2022-10-16T05:24:14;6.20;;;4.37;;
44432;SDS011;30136;50.600;4.608;2022-10-16T05:25:16;4.78;;;4.00;;
44432;SDS011;30136;50.600;4.608;2022-10-16T05:26:17;4.80;;;3.80;;
44432;SDS011;30136;50.600;4.608;2022-10-16T05:27:17;9.47;;;4.80;;
44432;SDS011;30136;50.600;4.608;2022-10-16T05:28:19;4.30;;;3.63;;
44432;SDS011;30136;50.600;4.608;2022-10-16T05:29:20;5.73;;;3.57;;
44432;SDS011;30136;50.600;4.608;2022-10-16T05:30:21;4.53;;;3.20;;
44432;SDS011;30136;50.600;4.608;2022-10-16T05:31:22;10.77;;;4.75;;
44432;SDS011;30136;50.600;4.608;2022-10-16T05:32:23;4.88;;;3.97;;
44432;SDS011;30136;50.600;4.608;2022-10-16T05:33:24;4.37;;;3.77;;
44432;SDS011;30136;50.600;4.608;2022-10-16T05:34:26;4.83;;;3.97;;
44432;SDS011;30136;50.600;4.608;2022-10-16T05:35:27;5.77;;;4.07;;
44432;SDS011;30136;50.600;4.608;2022-10-16T05:36:27;6.07;;;4.30;;
44432;SDS011;30136;50.600;4.608;2022-10-16T05:37:28;8.35;;;4.57;;
44432;SDS011;30136;50.600;4.608;2022-10-16T05:38:29;6.03;;;3.88;;
44432;SDS011;30136;50.600;4.608;2022-10-16T05:39:30;9.32;;;3.90;;
44432;SDS011;30136;50.600;4.608;2022-10-16T05:40:31;6.80;;;3.88;;
44432;SDS011;30136;50.600;4.608;2022-10-16T05:41:32;6.50;;;3.80;;
44432;SDS011;30136;50.600;4.608;2022-10-16T05:42:33;4.63;;;3.40;;
44432;SDS011;30136;50.600;4.608;2022-10-16T05:43:33;6.50;;;3.97;;
44432;SDS011;30136;50.600;4.608;2022-10-16T05:44:34;4.78;;;3.75;;
44432;SDS011;30136;50.600;4.608;2022-10-16T05:45:35;4.85;;;3.70;;
44432;SDS011;30136;50.600;4.608;2022-10-16T05:46:36;4.68;;;3.83;;
44432;SDS011;30136;50.600;4.608;2022-10-16T05:47:37;4.18;;;3.03;;
44432;SDS011;30136;50.600;4.608;2022-10-16T05:48:38;4.45;;;3.60;;
44432;SDS011;30136;50.600;4.608;2022-10-16T05:49:38;3.90;;;3.23;;
44432;SDS011;30136;50.600;4.608;2022-10-16T05:50:39;6.25;;;3.28;;
44432;SDS011;30136;50.600;4.608;2022-10-16T05:51:40;4.47;;;2.93;;
44432;SDS011;30136;50.600;4.608;2022-10-16T05:52:41;5.38;;;3.28;;
44432;SDS011;30136;50.600;4.608;2022-10-16T05:53:43;5.30;;;3.03;;
44432;SDS011;30136;50.600;4.608;2022-10-16T05:55:51;3.40;;;3.00;;
44432;SDS011;30136;50.600;4.608;2022-10-16T05:56:52;4.07;;;2.83;;
44432;SDS011;30136;50.600;4.608;2022-10-16T05:57:54;5.38;;;3.38;;
44432;SDS011;30136;50.600;4.608;2022-10-16T05:58:55;4.05;;;2.85;;
44432;SDS011;30136;50.600;4.608;2022-10-16T05:59:56;4.65;;;3.03;;
44432;SDS011;30136;50.600;4.608;2022-10-16T06:00:58;4.45;;;3.03;;
44432;SDS011;30136;50.600;4.608;2022-10-16T06:02:01;3.63;;;2.83;;
44432;SDS011;30136;50.600;4.608;2022-10-16T06:03:02;3.50;;;2.80;;
44432;SDS011;30136;50.600;4.608;2022-10-16T06:04:03;4.82;;;2.78;;
44432;SDS011;30136;50.600;4.608;2022-10-16T06:05:04;4.70;;;2.85;;
44432;SDS011;30136;50.600;4.608;2022-10-16T06:07:14;5.10;;;3.00;;
44432;SDS011;30136;50.600;4.608;2022-10-16T06:08:15;4.90;;;2.53;;
44432;SDS011;30136;50.600;4.608;2022-10-16T06:09:16;3.28;;;2.72;;
44432;SDS011;30136;50.600;4.608;2022-10-16T06:10:17;3.65;;;2.72;;
44432;SDS011;30136;50.600;4.608;2022-10-16T06:11:20;6.45;;;2.95;;
44432;SDS011;30136;50.600;4.608;2022-10-16T06:12:23;3.00;;;2.70;;
44432;SDS011;30136;50.600;4.608;2022-10-16T06:13:24;4.38;;;2.67;;
44432;SDS011;30136;50.600;4.608;2022-10-16T06:14:25;6.50;;;2.80;;
44432;SDS011;30136;50.600;4.608;2022-10-16T06:15:26;2.80;;;2.50;;
44432;SDS011;30136;50.600;4.608;2022-10-16T06:16:27;4.67;;;2.80;;
44432;SDS011;30136;50.600;4.608;2022-10-16T06:17:28;3.87;;;2.80;;
44432;SDS011;30136;50.600;4.608;2022-10-16T06:18:29;3.78;;;2.35;;
44432;SDS011;30136;50.600;4.608;2022-10-16T06:19:31;4.80;;;2.53;;
44432;SDS011;30136;50.600;4.608;2022-10-16T06:20:32;3.58;;;2.40;;
44432;SDS011;30136;50.600;4.608;2022-10-16T06:21:32;2.80;;;2.33;;
44432;SDS011;30136;50.600;4.608;2022-10-16T06:22:33;7.20;;;2.78;;
44432;SDS011;30136;50.600;4.608;2022-10-16T06:23:34;3.10;;;2.50;;
44432;SDS011;30136;50.600;4.608;2022-10-16T06:24:35;3.58;;;2.75;;
44432;SDS011;30136;50.600;4.608;2022-10-16T06:25:36;2.95;;;2.22;;
44432;SDS011;30136;50.600;4.608;2022-10-16T06:26:37;4.50;;;2.40;;
44432;SDS011;30136;50.600;4.608;2022-10-16T06:27:41;3.90;;;2.80;;
44432;SDS011;30136;50.600;4.608;2022-10-16T06:28:42;3.37;;;2.20;;
44432;SDS011;30136;50.600;4.608;2022-10-16T06:30:45;2.57;;;2.13;;
44432;SDS011;30136;50.600;4.608;2022-10-16T06:31:46;5.28;;;2.42;;
44432;SDS011;30136;50.600;4.608;2022-10-16T06:32:47;2.88;;;2.30;;
44432;SDS011;30136;50.600;4.608;2022-10-16T06:33:50;2.90;;;2.30;;
44432;SDS011;30136;50.600;4.608;2022-10-16T06:34:51;3.57;;;2.70;;
44432;SDS011;30136;50.600;4.608;2022-10-16T06:35:52;5.13;;;2.30;;
44432;SDS011;30136;50.600;4.608;2022-10-16T06:36:53;3.72;;;2.30;;
44432;SDS011;30136;50.600;4.608;2022-10-16T06:37:54;4.28;;;2.92;;
44432;SDS011;30136;50.600;4.608;2022-10-16T06:38:54;3.27;;;2.40;;
44432;SDS011;30136;50.600;4.608;2022-10-16T06:39:55;2.63;;;2.40;;
44432;SDS011;30136;50.600;4.608;2022-10-16T06:40:58;2.70;;;2.10;;
44432;SDS011;30136;50.600;4.608;2022-10-16T06:41:59;3.55;;;2.35;;